createdAt,value
2017-12-01T00:00:57.442Z,3.75
2017-12-01T00:03:28.875Z,3.84
2017-12-01T00:05:57.165Z,3.86
2017-12-01T00:08:30.551Z,3.90
2017-12-01T00:10:58.842Z,3.81
2017-12-01T00:13:31.437Z,3.75
2017-12-01T00:15:59.732Z,3.81
2017-12-01T00:18:29.764Z,3.72
2017-12-01T00:20:58.057Z,3.73
2017-12-01T00:23:30.591Z,3.67
2017-12-01T00:25:59.038Z,3.60
2017-12-01T00:28:30.757Z,3.51
2017-12-01T00:30:59.197Z,3.55
2017-12-01T00:33:29.325Z,3.53
2017-12-01T00:35:57.602Z,3.54
2017-12-01T00:38:29.333Z,3.46
2017-12-01T00:40:57.864Z,3.52
2017-12-01T00:43:29.300Z,3.69
2017-12-01T00:45:57.606Z,3.71
2017-12-01T00:48:28.934Z,3.76
2017-12-01T00:50:57.231Z,3.83
2017-12-01T00:53:28.789Z,3.56
2017-12-01T00:55:57.371Z,3.53
2017-12-01T00:58:29.117Z,3.53
2017-12-01T01:00:57.433Z,3.57
2017-12-01T01:03:28.826Z,3.54
2017-12-01T01:05:57.413Z,3.52
2017-12-01T01:08:29.255Z,3.75
2017-12-01T01:10:57.554Z,3.77
2017-12-01T01:13:29.033Z,3.77
2017-12-01T01:15:57.401Z,3.69
2017-12-01T01:18:28.722Z,3.68
2017-12-01T01:20:57.005Z,3.63
2017-12-01T01:23:28.123Z,3.72
2017-12-01T01:25:56.987Z,3.58
2017-12-01T01:28:29.050Z,3.65
2017-12-01T01:30:57.669Z,3.68
2017-12-01T01:33:29.719Z,3.60
2017-12-01T01:35:58.277Z,3.55
2017-12-01T01:38:29.548Z,3.67
2017-12-01T01:40:57.816Z,3.73
2017-12-01T01:43:29.565Z,3.66
2017-12-01T01:45:58.176Z,3.70
2017-12-01T01:48:29.700Z,3.73
2017-12-01T01:50:57.991Z,3.71
2017-12-01T01:53:28.057Z,3.72
2017-12-01T01:55:57.315Z,3.73
2017-12-01T01:58:29.457Z,3.75
2017-12-01T02:00:57.932Z,3.69
2017-12-01T02:03:27.873Z,3.77
2017-12-01T02:05:56.177Z,3.75
2017-12-01T02:08:28.101Z,3.66
2017-12-01T02:10:56.396Z,3.62
2017-12-01T02:13:27.964Z,3.63
2017-12-01T02:15:56.376Z,3.70
2017-12-01T02:18:28.194Z,3.70
2017-12-01T02:20:56.497Z,3.74
2017-12-01T02:23:28.435Z,3.59
2017-12-01T02:25:56.725Z,3.68
2017-12-01T02:28:28.073Z,3.62
2017-12-01T02:30:56.640Z,3.77
2017-12-01T02:33:30.606Z,3.77
2017-12-01T02:35:58.898Z,3.71
2017-12-01T02:38:28.838Z,3.75
2017-12-01T02:40:57.114Z,3.65
2017-12-01T02:43:29.133Z,3.59
2017-12-01T02:45:57.738Z,3.60
2017-12-01T02:48:30.326Z,3.53
2017-12-01T02:50:58.618Z,3.61
2017-12-01T02:53:28.921Z,3.69
2017-12-01T02:55:57.324Z,3.61
2017-12-01T02:58:29.073Z,3.58
2017-12-01T03:00:57.650Z,3.50
2017-12-01T03:03:28.848Z,3.50
2017-12-01T03:05:57.142Z,3.54
2017-12-01T03:08:29.236Z,3.57
2017-12-01T03:10:57.547Z,3.58
2017-12-01T03:13:28.263Z,3.59
2017-12-01T03:15:56.762Z,3.57
2017-12-01T03:18:28.065Z,3.53
2017-12-01T03:20:56.360Z,3.60
2017-12-01T03:23:31.528Z,3.56
2017-12-01T03:25:59.820Z,3.54
2017-12-01T03:28:28.630Z,3.55
2017-12-01T03:30:57.166Z,3.64
2017-12-01T03:33:29.120Z,3.42
2017-12-01T03:35:57.430Z,3.61
2017-12-01T03:38:29.353Z,3.63
2017-12-01T03:40:57.630Z,3.53
2017-12-01T03:43:28.856Z,3.51
2017-12-01T03:45:57.140Z,3.45
2017-12-01T03:48:28.676Z,3.38
2017-12-01T03:50:56.946Z,3.43
2017-12-01T03:53:28.386Z,3.36
2017-12-01T03:55:56.973Z,3.43
2017-12-01T03:58:28.986Z,3.47
2017-12-01T04:00:58.154Z,3.51
2017-12-01T04:03:27.963Z,3.52
2017-12-01T04:05:56.263Z,3.59
2017-12-01T04:08:31.305Z,3.58
2017-12-01T04:10:59.861Z,3.51
2017-12-01T04:13:28.355Z,3.53
2017-12-01T04:15:56.718Z,3.56
2017-12-01T04:18:28.268Z,3.54
2017-12-01T04:20:56.574Z,3.45
2017-12-01T04:23:29.081Z,3.37
2017-12-01T04:25:57.372Z,3.42
2017-12-01T04:28:28.600Z,3.35
2017-12-01T04:30:57.062Z,3.34
2017-12-01T04:33:28.540Z,3.38
2017-12-01T04:35:56.828Z,3.43
2017-12-01T04:38:28.150Z,3.45
2017-12-01T04:40:56.646Z,3.48
2017-12-01T04:43:28.661Z,3.42
2017-12-01T04:45:56.953Z,3.41
2017-12-01T04:48:27.913Z,3.40
2017-12-01T04:50:56.222Z,3.39
2017-12-01T04:53:27.861Z,3.36
2017-12-01T04:56:03.646Z,3.20
2017-12-01T04:58:31.936Z,2.98
2017-12-01T05:01:00.213Z,3.09
2017-12-01T05:03:28.809Z,3.11
2017-12-01T05:05:57.093Z,3.16
2017-12-01T05:08:29.215Z,3.14
2017-12-01T05:10:57.804Z,3.21
2017-12-01T05:13:29.260Z,3.20
2017-12-01T05:15:57.552Z,3.26
2017-12-01T05:18:29.505Z,3.29
2017-12-01T05:20:57.789Z,3.28
2017-12-01T05:23:29.229Z,3.23
2017-12-01T05:25:57.504Z,3.26
2017-12-01T05:28:29.576Z,3.36
2017-12-01T05:30:57.884Z,3.44
2017-12-01T05:33:30.733Z,3.40
2017-12-01T05:35:59.025Z,3.48
2017-12-01T05:38:28.276Z,3.33
2017-12-01T05:40:57.285Z,3.36
2017-12-01T05:43:28.882Z,3.42
2017-12-01T05:45:57.180Z,3.44
2017-12-01T05:48:28.659Z,3.37
2017-12-01T05:50:56.931Z,3.34
2017-12-01T05:53:27.998Z,3.23
2017-12-01T05:55:56.299Z,3.33
2017-12-01T05:58:31.449Z,3.34
2017-12-01T06:00:59.725Z,3.33
2017-12-01T06:03:28.263Z,3.25
2017-12-01T06:05:56.628Z,3.24
2017-12-01T06:08:28.649Z,3.20
2017-12-01T06:10:56.920Z,3.34
2017-12-01T06:13:28.634Z,3.34
2017-12-01T06:15:57.233Z,3.24
2017-12-01T06:18:28.878Z,3.25
2017-12-01T06:20:57.160Z,3.28
2017-12-01T06:23:28.594Z,3.20
2017-12-01T06:25:56.877Z,3.08
2017-12-01T06:28:28.694Z,3.19
2017-12-01T06:30:57.476Z,3.29
2017-12-01T06:33:28.814Z,3.26
2017-12-01T06:35:57.104Z,3.11
2017-12-01T06:38:29.054Z,3.30
2017-12-01T06:40:57.466Z,3.34
2017-12-01T06:43:28.942Z,3.34
2017-12-01T06:45:57.888Z,3.41
2017-12-01T06:48:28.079Z,3.45
2017-12-01T06:50:56.925Z,3.45
2017-12-01T06:53:29.002Z,3.42
2017-12-01T06:55:57.308Z,3.41
2017-12-01T06:58:28.229Z,3.39
2017-12-01T07:00:56.532Z,3.40
2017-12-01T07:03:28.164Z,3.33
2017-12-01T07:05:56.849Z,3.45
2017-12-01T07:08:28.887Z,3.49
2017-12-01T07:10:57.333Z,3.33
2017-12-01T07:13:29.505Z,3.25
2017-12-01T07:15:57.809Z,3.27
2017-12-01T07:18:30.639Z,3.38
2017-12-01T07:20:58.924Z,3.16
2017-12-01T07:23:29.364Z,3.07
2017-12-01T07:25:57.655Z,3.16
2017-12-01T07:28:29.167Z,3.14
2017-12-01T07:30:57.753Z,3.16
2017-12-01T07:33:29.476Z,3.14
2017-12-01T07:35:57.862Z,3.03
2017-12-01T07:38:29.642Z,3.08
2017-12-01T07:40:57.922Z,3.13
2017-12-01T07:43:28.057Z,3.21
2017-12-01T07:45:56.379Z,3.16
2017-12-01T07:48:31.639Z,3.11
2017-12-01T07:50:59.914Z,3.22
2017-12-01T07:53:28.241Z,3.34
2017-12-01T07:55:56.661Z,3.33
2017-12-01T07:58:28.332Z,3.30
2017-12-01T08:00:57.017Z,3.20
2017-12-01T08:03:29.587Z,3.26
2017-12-01T08:05:57.869Z,3.23
2017-12-01T08:08:29.393Z,3.41
2017-12-01T08:10:57.693Z,3.43
2017-12-01T08:13:29.902Z,3.46
2017-12-01T08:16:10.086Z,3.59
2017-12-01T08:18:49.217Z,3.50
2017-12-01T08:24:31.989Z,3.41
2017-12-01T08:27:00.293Z,3.47
2017-12-01T08:29:28.737Z,3.53
2017-12-01T08:31:57.036Z,3.56
2017-12-01T08:34:25.329Z,3.56
2017-12-01T08:36:53.630Z,3.47
2017-12-01T08:39:21.923Z,3.43
2017-12-01T08:41:50.201Z,3.36
2017-12-01T08:44:18.637Z,3.50
2017-12-01T08:46:46.904Z,3.61
2017-12-01T08:49:15.205Z,3.69
2017-12-01T08:51:43.487Z,3.60
2017-12-01T08:54:12.284Z,3.55
2017-12-01T08:56:40.525Z,3.60
2017-12-01T08:59:08.830Z,3.59
2017-12-01T09:01:37.118Z,3.62
2017-12-01T09:04:06.189Z,3.58
2017-12-01T09:06:34.488Z,3.79
2017-12-01T09:09:02.784Z,4.04
2017-12-01T09:11:31.084Z,4.09
2017-12-01T09:13:59.377Z,4.06
2017-12-01T09:16:27.857Z,4.10
2017-12-01T09:18:56.127Z,4.11
2017-12-01T09:21:24.965Z,4.18
2017-12-01T09:23:53.589Z,4.18
2017-12-01T09:26:21.896Z,4.18
2017-12-01T09:28:50.287Z,4.08
2017-12-01T09:31:18.799Z,4.17
2017-12-01T09:33:47.101Z,4.27
2017-12-01T09:36:15.597Z,4.33
2017-12-01T09:38:44.387Z,4.10
2017-12-01T09:41:12.699Z,4.33
2017-12-01T09:43:41.737Z,4.54
2017-12-01T09:46:10.038Z,4.53
2017-12-01T09:48:38.312Z,4.23
2017-12-01T09:51:06.647Z,4.22
2017-12-01T09:53:34.940Z,4.40
2017-12-01T09:56:03.477Z,4.58
2017-12-01T09:58:31.762Z,4.50
2017-12-01T10:01:00.101Z,4.49
2017-12-01T10:03:28.464Z,4.16
2017-12-01T10:05:56.773Z,4.20
2017-12-01T10:08:29.413Z,4.24
2017-12-01T10:10:57.704Z,4.23
2017-12-01T10:13:29.709Z,4.23
2017-12-01T10:15:58.109Z,4.13
2017-12-01T10:18:28.208Z,4.09
2017-12-01T10:20:56.497Z,4.22
2017-12-01T10:23:28.053Z,4.18
2017-12-01T10:25:56.393Z,4.22
2017-12-01T10:28:31.509Z,4.58
2017-12-01T10:31:00.052Z,4.35
2017-12-01T10:33:28.364Z,4.46
2017-12-01T10:35:56.905Z,4.36
2017-12-01T10:38:28.768Z,4.42
2017-12-01T10:40:57.052Z,4.63
2017-12-01T10:43:28.185Z,4.54
2017-12-01T10:45:57.202Z,4.24
2017-12-01T10:48:29.846Z,4.19
2017-12-01T10:50:58.125Z,4.12
2017-12-01T10:53:28.153Z,4.13
2017-12-01T10:55:56.457Z,4.28
2017-12-01T10:58:31.445Z,4.13
2017-12-01T11:00:59.754Z,4.11
2017-12-01T11:03:28.712Z,4.10
2017-12-01T11:05:57.010Z,4.07
2017-12-01T11:08:30.168Z,4.15
2017-12-01T11:10:58.712Z,4.22
2017-12-01T11:13:29.022Z,4.33
2017-12-01T11:15:57.337Z,4.56
2017-12-01T11:18:27.989Z,4.61
2017-12-01T11:20:56.355Z,4.48
2017-12-01T11:23:27.837Z,4.55
2017-12-01T11:25:56.133Z,4.86
2017-12-01T11:28:27.669Z,4.95
2017-12-01T11:30:55.948Z,5.26
2017-12-01T11:33:30.981Z,5.82
2017-12-01T11:35:59.261Z,6.33
2017-12-01T11:38:28.832Z,6.63
2017-12-01T11:40:57.106Z,7.24
2017-12-01T11:43:29.064Z,7.34
2017-12-01T11:45:57.348Z,7.32
2017-12-01T11:48:28.880Z,7.04
2017-12-01T11:50:57.289Z,6.72
2017-12-01T11:53:29.156Z,5.98
2017-12-01T11:55:57.478Z,5.73
2017-12-01T11:58:29.461Z,5.65
2017-12-01T12:00:58.596Z,5.37
2017-12-01T12:03:28.697Z,5.55
2017-12-01T12:05:56.989Z,5.51
2017-12-01T12:08:29.157Z,5.37
2017-12-01T12:10:57.440Z,5.21
2017-12-01T12:13:29.351Z,5.20
2017-12-01T12:15:57.654Z,5.27
2017-12-01T12:18:29.900Z,5.32
2017-12-01T12:20:58.309Z,5.09
2017-12-01T12:23:29.653Z,4.96
2017-12-01T12:25:57.977Z,4.86
2017-12-01T12:28:28.204Z,5.00
2017-12-01T12:30:56.536Z,4.84
2017-12-01T12:33:28.881Z,4.83
2017-12-01T12:35:57.296Z,4.90
2017-12-01T12:38:28.785Z,4.74
2017-12-01T12:40:57.290Z,4.90
2017-12-01T12:43:28.913Z,4.75
2017-12-01T12:45:57.465Z,4.70
2017-12-01T12:48:29.169Z,5.05
2017-12-01T12:50:57.459Z,5.29
2017-12-01T12:53:29.270Z,5.35
2017-12-01T12:55:57.776Z,5.34
2017-12-01T12:58:30.137Z,5.49
2017-12-01T13:00:58.432Z,5.57
2017-12-01T13:03:28.046Z,5.33
2017-12-01T13:05:57.129Z,5.62
2017-12-01T13:08:28.740Z,5.55
2017-12-01T13:10:57.030Z,5.65
2017-12-01T13:13:28.972Z,5.37
2017-12-01T13:15:58.115Z,5.42
2017-12-01T13:18:28.147Z,5.83
2017-12-01T13:20:56.454Z,5.49
2017-12-01T13:23:29.109Z,5.48
2017-12-01T13:25:57.533Z,5.68
2017-12-01T13:28:29.177Z,5.72
2017-12-01T13:30:57.482Z,5.52
2017-12-01T13:33:28.682Z,5.38
2017-12-01T13:35:57.063Z,5.43
2017-12-01T13:38:28.000Z,5.50
2017-12-01T13:40:56.334Z,5.52
2017-12-01T13:43:31.407Z,5.41
2017-12-01T13:45:59.864Z,5.76
2017-12-01T13:48:28.145Z,5.88
2017-12-01T13:50:56.451Z,5.81
2017-12-01T13:53:27.984Z,5.84
2017-12-01T13:55:56.553Z,5.83
2017-12-01T13:58:29.029Z,5.56
2017-12-01T14:00:57.342Z,5.48
2017-12-01T14:03:29.552Z,5.50
2017-12-01T14:05:57.871Z,5.43
2017-12-01T14:08:31.053Z,5.18
2017-12-01T14:10:59.362Z,5.22
2017-12-01T14:13:28.589Z,5.25
2017-12-01T14:15:57.281Z,5.16
2017-12-01T14:18:28.901Z,4.99
2017-12-01T14:20:57.189Z,5.08
2017-12-01T14:23:28.017Z,5.14
2017-12-01T14:25:56.322Z,4.95
2017-12-01T14:28:28.024Z,4.80
2017-12-01T14:30:57.018Z,4.82
2017-12-01T14:33:28.801Z,4.78
2017-12-01T14:35:57.126Z,4.93
2017-12-01T14:38:29.922Z,4.89
2017-12-01T14:40:58.887Z,4.73
2017-12-01T14:43:28.857Z,4.74
2017-12-01T14:45:57.168Z,4.72
2017-12-01T14:48:28.926Z,4.66
2017-12-01T14:50:57.218Z,4.71
2017-12-01T14:53:28.622Z,4.65
2017-12-01T14:55:56.929Z,4.64
2017-12-01T14:58:28.733Z,4.58
2017-12-01T15:00:57.024Z,4.46
2017-12-01T15:03:28.265Z,4.36
2017-12-01T15:05:56.780Z,4.54
2017-12-01T15:08:28.266Z,4.44
2017-12-01T15:10:56.548Z,4.53
2017-12-01T15:13:27.993Z,4.55
2017-12-01T15:15:56.269Z,4.49
2017-12-01T15:18:27.682Z,4.39
2017-12-01T15:20:55.980Z,4.50
2017-12-01T15:23:30.931Z,4.50
2017-12-01T15:25:59.211Z,4.43
2017-12-01T15:28:29.541Z,4.45
2017-12-01T15:30:57.829Z,4.49
2017-12-01T15:33:30.085Z,4.43
2017-12-01T15:35:58.351Z,4.50
2017-12-01T15:38:29.616Z,4.32
2017-12-01T15:40:57.942Z,4.48
2017-12-01T15:43:29.406Z,4.47
2017-12-01T15:45:57.992Z,4.40
2017-12-01T15:48:29.688Z,4.33
2017-12-01T15:50:58.065Z,4.27
2017-12-01T15:53:28.038Z,4.28
2017-12-01T15:55:57.021Z,4.33
2017-12-01T15:58:28.950Z,4.43
2017-12-01T16:00:57.280Z,4.43
2017-12-01T16:03:28.068Z,4.29
2017-12-01T16:05:56.394Z,4.25
2017-12-01T16:08:27.859Z,4.25
2017-12-01T16:10:56.169Z,4.39
2017-12-01T16:13:31.092Z,4.38
2017-12-01T16:15:59.374Z,4.50
2017-12-01T16:18:28.233Z,4.45
2017-12-01T16:20:56.730Z,4.48
2017-12-01T16:23:28.236Z,4.23
2017-12-01T16:25:56.525Z,4.35
2017-12-01T16:28:27.856Z,4.24
2017-12-01T16:30:56.134Z,4.25
2017-12-01T16:33:27.524Z,4.42
2017-12-01T16:35:56.083Z,4.42
2017-12-01T16:38:27.879Z,4.38
2017-12-01T16:40:56.154Z,4.48
2017-12-01T16:43:28.241Z,4.53
2017-12-01T16:45:56.556Z,4.49
2017-12-01T16:48:28.213Z,4.25
2017-12-01T16:50:56.537Z,4.31
2017-12-01T16:53:27.895Z,4.44
2017-12-01T16:55:56.202Z,4.28
2017-12-01T16:58:27.537Z,4.44
2017-12-01T17:00:55.956Z,4.28
2017-12-01T17:03:27.358Z,4.19
2017-12-01T17:05:55.633Z,4.16
2017-12-01T17:08:30.483Z,4.28
2017-12-01T17:10:59.437Z,4.28
2017-12-01T17:13:27.927Z,4.42
2017-12-01T17:15:56.233Z,4.24
2017-12-01T17:18:27.684Z,4.08
2017-12-01T17:20:56.021Z,4.08
2017-12-01T17:23:27.443Z,4.15
2017-12-01T17:25:55.772Z,4.18
2017-12-01T17:28:30.696Z,4.28
2017-12-01T17:30:59.153Z,4.34
2017-12-01T17:33:28.878Z,4.23
2017-12-01T17:35:57.156Z,4.21
2017-12-01T17:38:28.830Z,4.13
2017-12-01T17:40:57.144Z,4.11
2017-12-01T17:43:29.063Z,4.22
2017-12-01T17:45:57.342Z,4.23
2017-12-01T17:48:28.877Z,4.25
2017-12-01T17:50:57.173Z,4.35
2017-12-01T17:53:28.516Z,4.42
2017-12-01T17:55:57.862Z,4.39
2017-12-01T17:58:28.417Z,4.33
2017-12-01T18:00:56.716Z,4.29
2017-12-01T18:03:28.544Z,3.97
2017-12-01T18:05:56.854Z,4.10
2017-12-01T18:08:28.578Z,4.17
2017-12-01T18:10:56.888Z,4.20
2017-12-01T18:13:29.097Z,4.25
2017-12-01T18:15:57.409Z,4.30
2017-12-01T18:18:29.021Z,4.19
2017-12-01T18:20:57.364Z,4.25
2017-12-01T18:23:28.643Z,4.05
2017-12-01T18:25:56.931Z,4.08
2017-12-01T18:28:28.280Z,4.08
2017-12-01T18:30:56.580Z,4.17
2017-12-01T18:33:28.018Z,4.13
2017-12-01T18:35:56.319Z,4.11
2017-12-01T18:38:27.816Z,4.13
2017-12-01T18:40:56.121Z,4.13
2017-12-01T18:43:27.533Z,4.15
2017-12-01T18:45:55.832Z,3.97
2017-12-01T18:48:27.369Z,3.94
2017-12-01T18:50:55.659Z,4.06
2017-12-01T18:53:27.148Z,3.95
2017-12-01T18:55:55.448Z,3.99
2017-12-01T18:58:30.098Z,4.07
2017-12-01T19:00:58.393Z,4.01
2017-12-01T19:03:28.017Z,3.92
2017-12-01T19:05:56.276Z,3.91
2017-12-01T19:08:27.916Z,3.98
2017-12-01T19:10:56.262Z,3.96
2017-12-01T19:13:27.798Z,3.86
2017-12-01T19:15:56.092Z,3.97
2017-12-01T19:18:27.973Z,3.91
2017-12-01T19:20:56.259Z,3.86
2017-12-01T19:23:28.061Z,3.83
2017-12-01T19:25:56.348Z,3.75
2017-12-01T19:28:30.418Z,3.83
2017-12-01T19:30:58.701Z,3.86
2017-12-01T19:33:27.859Z,3.94
2017-12-01T19:35:56.317Z,3.89
2017-12-01T19:38:27.817Z,3.85
2017-12-01T19:40:56.138Z,3.74
2017-12-01T19:43:27.813Z,3.76
2017-12-01T19:45:56.170Z,4.12
2017-12-01T19:48:31.282Z,4.10
2017-12-01T19:50:59.981Z,4.10
2017-12-01T19:53:28.261Z,4.02
2017-12-01T19:55:56.570Z,3.83
2017-12-01T19:58:28.083Z,3.74
2017-12-01T20:00:56.399Z,3.60
2017-12-01T20:03:27.925Z,3.55
2017-12-01T20:05:56.221Z,3.35
2017-12-01T20:08:27.786Z,3.61
2017-12-01T20:10:56.090Z,3.40
2017-12-01T20:13:27.905Z,3.17
2017-12-01T20:15:56.405Z,3.29
2017-12-01T20:18:27.823Z,3.19
2017-12-01T20:20:56.125Z,3.02
2017-12-01T20:23:28.565Z,3.00
2017-12-01T20:25:57.310Z,2.93
2017-12-01T20:28:29.937Z,2.85
2017-12-01T20:30:58.236Z,2.72
2017-12-01T20:33:27.773Z,2.86
2017-12-01T20:35:59.802Z,2.74
2017-12-01T20:38:28.102Z,2.72
2017-12-01T20:40:56.416Z,2.68
2017-12-01T20:43:27.894Z,2.51
2017-12-01T20:45:56.197Z,2.50
2017-12-01T20:48:27.707Z,2.46
2017-12-01T20:50:56.004Z,2.52
2017-12-01T20:53:27.827Z,2.43
2017-12-01T20:55:56.181Z,2.32
2017-12-01T20:58:28.520Z,2.14
2017-12-01T21:00:56.906Z,2.15
2017-12-01T21:03:28.465Z,2.07
2017-12-01T21:05:56.950Z,1.93
2017-12-01T21:08:27.938Z,2.00
2017-12-01T21:10:56.301Z,1.86
2017-12-01T21:13:28.194Z,1.75
2017-12-01T21:15:56.517Z,1.87
2017-12-01T21:18:28.706Z,1.86
2017-12-01T21:20:57.032Z,1.77
2017-12-01T21:23:28.708Z,1.80
2017-12-01T21:25:56.996Z,1.80
2017-12-01T21:28:28.811Z,1.75
2017-12-01T21:30:57.953Z,1.70
2017-12-01T21:33:28.053Z,1.54
2017-12-01T21:35:56.352Z,1.48
2017-12-01T21:38:28.822Z,1.52
2017-12-01T21:40:57.788Z,1.41
2017-12-01T21:43:29.899Z,1.48
2017-12-01T21:45:58.269Z,1.52
2017-12-01T21:48:29.755Z,1.81
2017-12-01T21:50:58.035Z,2.17
2017-12-01T21:53:29.651Z,2.16
2017-12-01T21:55:58.285Z,2.20
2017-12-01T21:58:29.603Z,2.01
2017-12-01T22:00:58.070Z,1.86
2017-12-01T22:03:29.471Z,1.76
2017-12-01T22:05:57.777Z,1.61
2017-12-01T22:08:29.802Z,1.46
2017-12-01T22:10:58.112Z,1.25
2017-12-01T22:13:29.642Z,1.35
2017-12-01T22:15:57.937Z,1.26
2017-12-01T22:18:29.577Z,1.19
2017-12-01T22:20:57.864Z,1.02
2017-12-01T22:23:29.376Z,0.99
2017-12-01T22:25:57.899Z,1.06
2017-12-01T22:28:27.760Z,1.01
2017-12-01T22:30:56.352Z,1.01
2017-12-01T22:33:28.372Z,1.09
2017-12-01T22:35:56.730Z,0.96
2017-12-01T22:38:27.832Z,0.92
2017-12-01T22:40:56.184Z,1.04
2017-12-01T22:43:28.915Z,1.00
2017-12-01T22:45:57.292Z,0.90
2017-12-01T22:48:28.856Z,1.22
2017-12-01T22:50:57.356Z,1.13
2017-12-01T22:53:28.844Z,1.14
2017-12-01T22:55:57.148Z,1.07
2017-12-01T22:58:28.484Z,1.04
2017-12-01T23:00:56.849Z,0.99
2017-12-01T23:03:28.043Z,0.93
2017-12-01T23:05:56.370Z,0.96
2017-12-01T23:08:27.461Z,1.03
2017-12-01T23:10:55.829Z,0.81
2017-12-01T23:13:27.445Z,0.69
2017-12-01T23:15:56.228Z,0.62
2017-12-01T23:18:28.252Z,0.83
2017-12-01T23:20:56.733Z,0.81
2017-12-01T23:23:27.136Z,0.84
2017-12-01T23:25:55.634Z,0.87
2017-12-01T23:28:27.453Z,0.85
2017-12-01T23:30:55.749Z,0.79
2017-12-01T23:33:27.484Z,0.75
2017-12-01T23:35:55.805Z,0.63
2017-12-01T23:38:27.421Z,0.77
2017-12-01T23:40:55.731Z,0.71
2017-12-01T23:43:29.790Z,0.72
2017-12-01T23:45:58.115Z,0.72
2017-12-01T23:48:28.854Z,0.74
2017-12-01T23:50:57.673Z,0.86
2017-12-01T23:53:29.546Z,0.75
2017-12-01T23:55:57.841Z,0.80
2017-12-01T23:58:27.718Z,0.81
